Time;durP1;ratioP1;P1;durP2;ratioP2;P2;SDS_P1;SDS_P2;PMS_P1;PMS_P2;Temp;Humidity;BMP_temperature;BMP_pressure;BME280_temperature;BME280_humidity;BME280_pressure;Samples;Min_cycle;Max_cycle;Signal;HPM_P1;HPM_P2
2023/12/28 00:00:42;;;;;;;6.32;2.15;;;6.20;99.90;;;;;;4986994;28;20047;-62
2023/12/28 00:03:08;;;;;;;2.67;1.75;;;6.30;99.90;;;;;;4987954;28;20046;-62
2023/12/28 00:05:34;;;;;;;3.38;1.90;;;6.30;99.90;;;;;;4990632;28;20659;-59
2023/12/28 00:07:59;;;;;;;4.15;2.40;;;6.30;99.90;;;;;;4987503;28;20096;-62
2023/12/28 00:10:27;;;;;;;1.98;1.75;;;6.40;99.90;;;;;;4992697;28;20050;-61
2023/12/28 00:12:54;;;;;;;3.38;1.80;;;6.40;99.90;;;;;;4986240;28;20034;-62
2023/12/28 00:15:20;;;;;;;3.60;1.60;;;6.40;99.90;;;;;;4991173;28;20095;-62
2023/12/28 00:17:45;;;;;;;4.35;1.80;;;6.50;99.90;;;;;;4987827;28;20030;-61
2023/12/28 00:20:12;;;;;;;1.80;1.65;;;6.50;99.90;;;;;;4990382;28;20452;-62
2023/12/28 00:22:37;;;;;;;4.20;2.15;;;6.50;99.90;;;;;;4987262;28;20027;-62
2023/12/28 00:25:04;;;;;;;2.17;1.77;;;6.50;99.90;;;;;;4989644;28;20091;-62
2023/12/28 00:27:30;;;;;;;3.75;1.70;;;6.50;99.90;;;;;;4983948;28;20514;-62
2023/12/28 00:29:56;;;;;;;4.50;1.77;;;6.50;99.90;;;;;;4984990;28;20026;-61
2023/12/28 00:32:21;;;;;;;2.17;1.60;;;6.50;99.90;;;;;;4983855;28;20117;-62
2023/12/28 00:34:47;;;;;;;4.03;1.98;;;6.50;99.90;;;;;;4986895;28;20109;-62
2023/12/28 00:37:12;;;;;;;2.97;1.60;;;6.50;99.90;;;;;;4999102;28;20065;-62
2023/12/28 00:39:39;;;;;;;3.58;1.85;;;6.60;99.90;;;;;;4989939;28;20411;-62
2023/12/28 00:42:04;;;;;;;2.58;1.88;;;6.50;99.90;;;;;;4984496;28;20505;-62
2023/12/28 00:44:30;;;;;;;5.28;1.90;;;6.60;99.90;;;;;;4986782;28;20033;-62
2023/12/28 00:46:56;;;;;;;2.28;1.77;;;6.60;99.90;;;;;;5002539;28;20111;-62
2023/12/28 00:49:21;;;;;;;1.92;1.73;;;6.50;99.90;;;;;;4991005;28;20406;-63
2023/12/28 00:51:47;;;;;;;2.60;2.15;;;6.50;99.90;;;;;;4986360;28;20049;-62
2023/12/28 00:54:12;;;;;;;2.38;2.10;;;6.50;99.90;;;;;;4992369;28;20083;-62
2023/12/28 00:56:38;;;;;;;2.92;1.65;;;6.60;99.90;;;;;;4984965;28;20365;-62
2023/12/28 00:59:03;;;;;;;4.63;1.75;;;6.50;99.90;;;;;;4984313;28;20034;-61
2023/12/28 01:01:32;;;;;;;3.67;1.70;;;6.60;99.90;;;;;;4981481;28;20524;-62
2023/12/28 01:03:57;;;;;;;2.30;1.75;;;6.60;99.90;;;;;;4983615;28;20514;-62
2023/12/28 01:06:27;;;;;;;2.53;1.73;;;6.60;99.90;;;;;;5002396;28;20034;-62
2023/12/28 01:08:53;;;;;;;1.80;1.67;;;6.50;99.90;;;;;;4989934;28;20533;-62
2023/12/28 01:11:18;;;;;;;1.95;1.63;;;6.50;99.90;;;;;;4984043;28;20022;-62
2023/12/28 01:13:44;;;;;;;3.70;1.67;;;6.50;99.90;;;;;;4987699;28;20040;-62
2023/12/28 01:16:12;;;;;;;4.57;2.25;;;6.50;99.90;;;;;;4976175;28;20505;-63
2023/12/28 01:18:38;;;;;;;3.95;2.03;;;6.50;99.90;;;;;;4982779;28;20041;-62
2023/12/28 01:21:04;;;;;;;3.20;2.22;;;6.50;99.90;;;;;;4981997;28;20038;-62
2023/12/28 01:23:29;;;;;;;4.45;2.10;;;6.50;99.90;;;;;;4986308;28;20114;-62
2023/12/28 01:25:56;;;;;;;2.33;2.03;;;6.50;99.90;;;;;;5001729;28;20023;-62
2023/12/28 01:28:22;;;;;;;2.03;1.73;;;6.50;99.90;;;;;;4987066;28;20524;-62
2023/12/28 01:30:47;;;;;;;4.30;2.20;;;6.50;99.90;;;;;;4985788;28;20069;-62
2023/12/28 01:33:13;;;;;;;4.90;2.60;;;6.50;99.90;;;;;;4984616;28;20442;-61
2023/12/28 01:35:38;;;;;;;5.10;2.58;;;6.50;99.90;;;;;;4983015;28;20094;-62
2023/12/28 01:38:05;;;;;;;4.57;1.95;;;6.60;99.90;;;;;;4982120;28;20034;-62
2023/12/28 01:40:30;;;;;;;3.35;2.05;;;6.60;99.90;;;;;;4981248;28;20023;-62
2023/12/28 01:42:56;;;;;;;3.65;2.38;;;6.60;99.90;;;;;;4980368;28;20026;-62
2023/12/28 01:45:21;;;;;;;3.22;2.33;;;6.70;99.90;;;;;;4984494;28;20073;-62
2023/12/28 01:47:48;;;;;;;3.55;2.22;;;6.70;99.90;;;;;;4984779;28;20023;-62
2023/12/28 01:50:14;;;;;;;4.43;2.45;;;6.70;99.90;;;;;;4982659;28;20030;-62
2023/12/28 01:52:40;;;;;;;2.97;2.17;;;6.70;99.90;;;;;;4985026;28;20030;-62
2023/12/28 01:55:07;;;;;;;2.63;2.25;;;6.80;99.90;;;;;;4981826;28;20107;-61
2023/12/28 01:57:34;;;;;;;2.25;2.05;;;6.70;99.90;;;;;;4983423;28;20030;-62
2023/12/28 02:00:01;;;;;;;4.53;2.30;;;6.70;99.90;;;;;;4984098;28;20042;-62
2023/12/28 02:02:27;;;;;;;6.32;2.70;;;6.80;99.90;;;;;;4978358;28;20426;-62
2023/12/28 02:04:54;;;;;;;2.30;2.08;;;6.80;99.90;;;;;;4985818;28;20041;-62
2023/12/28 02:07:21;;;;;;;4.28;2.22;;;6.80;99.90;;;;;;4978467;28;20031;-62
2023/12/28 02:09:47;;;;;;;5.25;2.53;;;6.80;99.90;;;;;;4984832;28;20030;-62
2023/12/28 02:12:12;;;;;;;3.85;2.65;;;6.90;99.90;;;;;;4984556;28;20510;-62
2023/12/28 02:14:38;;;;;;;3.40;2.50;;;6.90;99.90;;;;;;4983322;28;20050;-63
2023/12/28 02:17:10;;;;;;;5.72;2.80;;;6.90;99.90;;;;;;4985467;28;20446;-61
2023/12/28 02:19:52;;;;;;;3.08;2.78;;;6.90;99.90;;;;;;4981601;28;20112;-62
2023/12/28 02:22:18;;;;;;;3.50;2.50;;;6.90;99.90;;;;;;4990014;28;20034;-62
2023/12/28 02:25:02;;;;;;;4.70;2.80;;;7.00;99.90;;;;;;4987593;28;20053;-62
2023/12/28 02:27:28;;;;;;;4.30;2.47;;;7.00;99.90;;;;;;5001720;28;20502;-62
2023/12/28 02:29:56;;;;;;;6.45;2.20;;;7.00;99.90;;;;;;4999336;28;20030;-62
2023/12/28 02:32:30;;;;;;;3.83;2.45;;;7.10;99.90;;;;;;4986861;28;22825;-62
2023/12/28 02:35:04;;;;;;;4.25;2.42;;;7.00;99.90;;;;;;4988469;28;20034;-62
2023/12/28 02:37:32;;;;;;;2.75;2.17;;;7.10;99.90;;;;;;4984586;28;20037;-62
2023/12/28 02:39:57;;;;;;;3.35;2.72;;;7.10;99.90;;;;;;4986811;28;20125;-62
2023/12/28 02:42:23;;;;;;;3.75;2.50;;;7.10;99.90;;;;;;4986415;28;20137;-62
2023/12/28 02:44:50;;;;;;;2.60;2.35;;;7.10;99.90;;;;;;4984672;28;20027;-62
2023/12/28 02:47:15;;;;;;;2.92;2.58;;;7.10;99.90;;;;;;4989960;28;20093;-62
2023/12/28 02:49:41;;;;;;;3.50;2.20;;;7.10;99.90;;;;;;4985706;28;20035;-61
2023/12/28 02:52:06;;;;;;;3.85;2.45;;;7.10;99.90;;;;;;4987203;28;20117;-62
2023/12/28 02:54:32;;;;;;;2.67;2.03;;;7.10;99.90;;;;;;4989366;28;20037;-60
2023/12/28 02:56:57;;;;;;;2.85;2.60;;;7.10;99.90;;;;;;4985492;28;20030;-61
2023/12/28 02:59:24;;;;;;;5.53;2.75;;;7.10;99.90;;;;;;4985516;28;20082;-62
2023/12/28 03:01:49;;;;;;;3.72;1.98;;;7.00;99.90;;;;;;4984132;28;20031;-61
2023/12/28 03:04:15;;;;;;;3.03;2.20;;;7.00;99.90;;;;;;4983247;28;20087;-62
2023/12/28 03:06:41;;;;;;;2.55;2.30;;;7.00;99.90;;;;;;4983247;28;20053;-62
2023/12/28 03:09:06;;;;;;;3.08;2.10;;;7.00;99.90;;;;;;4983102;28;20030;-62
2023/12/28 03:11:32;;;;;;;3.90;2.88;;;7.00;99.90;;;;;;4985461;28;20034;-61
2023/12/28 03:13:57;;;;;;;2.70;2.20;;;7.00;99.90;;;;;;4986393;28;20081;-62
2023/12/28 03:16:23;;;;;;;3.92;2.17;;;7.00;99.90;;;;;;4989769;28;20532;-62
2023/12/28 03:18:48;;;;;;;4.15;2.80;;;7.00;99.90;;;;;;4986806;28;20026;-62
2023/12/28 03:21:14;;;;;;;2.88;2.40;;;7.00;99.90;;;;;;4985084;28;20075;-62
2023/12/28 03:23:39;;;;;;;3.65;2.38;;;7.00;99.90;;;;;;4988278;28;20046;-61
2023/12/28 03:26:05;;;;;;;2.80;2.17;;;7.00;99.90;;;;;;4989861;28;20038;-62
2023/12/28 03:28:30;;;;;;;4.95;2.58;;;7.00;99.90;;;;;;5006615;28;20509;-62
2023/12/28 03:30:56;;;;;;;3.13;2.35;;;7.00;99.90;;;;;;4990421;28;20025;-61
2023/12/28 03:33:22;;;;;;;2.78;2.53;;;7.00;99.90;;;;;;4984751;28;20055;-62
2023/12/28 03:35:48;;;;;;;2.88;2.42;;;7.00;99.90;;;;;;4991718;28;20106;-63
2023/12/28 03:38:13;;;;;;;2.80;2.53;;;7.00;99.90;;;;;;4994682;28;20110;-62
2023/12/28 03:40:39;;;;;;;6.53;2.97;;;7.00;99.90;;;;;;4989164;28;20060;-61
2023/12/28 03:43:04;;;;;;;5.57;2.38;;;7.00;99.90;;;;;;4988881;28;20035;-62
2023/12/28 03:45:30;;;;;;;3.83;2.60;;;7.00;99.90;;;;;;4991536;28;20030;-62
2023/12/28 03:47:55;;;;;;;3.38;2.33;;;7.00;99.90;;;;;;4984184;28;20431;-62
2023/12/28 03:50:21;;;;;;;3.13;2.42;;;7.00;99.90;;;;;;4986506;28;20042;-62
2023/12/28 03:52:46;;;;;;;2.60;2.40;;;7.00;99.90;;;;;;5004961;28;20142;-62
2023/12/28 03:55:12;;;;;;;2.55;2.20;;;7.00;99.90;;;;;;4989538;28;20423;-61
2023/12/28 03:57:38;;;;;;;5.10;2.97;;;7.00;99.90;;;;;;4983612;28;20113;-62
2023/12/28 04:00:05;;;;;;;7.82;2.78;;;7.00;99.90;;;;;;4983942;28;20039;-62
2023/12/28 04:02:31;;;;;;;6.32;2.50;;;6.90;99.90;;;;;;4983935;28;20031;-63
2023/12/28 04:04:58;;;;;;;2.60;2.30;;;6.90;99.90;;;;;;4985100;28;20031;-61
2023/12/28 04:07:24;;;;;;;4.55;3.17;;;6.90;99.90;;;;;;4987745;28;20034;-62
2023/12/28 04:09:49;;;;;;;2.70;2.35;;;6.90;99.90;;;;;;4986877;28;20109;-62
2023/12/28 04:12:15;;;;;;;5.93;2.90;;;6.90;99.90;;;;;;4986720;28;20031;-62
2023/12/28 04:14:41;;;;;;;4.22;2.65;;;6.90;99.90;;;;;;4987104;28;20080;-61
2023/12/28 04:17:06;;;;;;;3.85;2.25;;;6.90;99.90;;;;;;4984804;28;20022;-62
2023/12/28 04:19:32;;;;;;;5.07;2.42;;;6.80;99.90;;;;;;4983471;28;20044;-62
2023/12/28 04:21:57;;;;;;;4.97;2.67;;;6.90;99.90;;;;;;4983295;28;20038;-62
2023/12/28 04:24:23;;;;;;;3.45;2.83;;;6.90;99.90;;;;;;4987820;28;20069;-62
2023/12/28 04:26:48;;;;;;;5.63;2.95;;;6.80;99.90;;;;;;4987727;28;20484;-62
2023/12/28 04:29:14;;;;;;;2.78;2.38;;;6.80;99.90;;;;;;4984788;28;20112;-63
2023/12/28 04:31:41;;;;;;;3.38;2.63;;;6.80;99.90;;;;;;4987282;28;20077;-62
2023/12/28 04:34:08;;;;;;;9.18;2.70;;;6.80;99.90;;;;;;4985994;28;20073;-63
2023/12/28 04:36:40;;;;;;;4.10;2.90;;;6.80;99.90;;;;;;4984161;28;20395;-62
2023/12/28 04:39:06;;;;;;;5.20;3.05;;;6.90;99.90;;;;;;4985186;28;20109;-62
2023/12/28 04:41:31;;;;;;;3.05;2.25;;;6.80;99.90;;;;;;4985038;28;20117;-62
2023/12/28 04:43:57;;;;;;;4.60;2.83;;;6.90;99.90;;;;;;4983853;28;20041;-63
2023/12/28 04:46:23;;;;;;;3.75;2.13;;;6.90;99.90;;;;;;4985833;28;20073;-61
2023/12/28 04:48:48;;;;;;;4.70;2.97;;;6.80;99.90;;;;;;4985927;28;20027;-62
2023/12/28 04:51:14;;;;;;;4.63;2.83;;;6.80;99.90;;;;;;4983933;28;20078;-63
2023/12/28 04:53:39;;;;;;;4.00;2.50;;;6.80;99.90;;;;;;4984118;28;20034;-62
2023/12/28 04:56:06;;;;;;;5.45;2.50;;;6.90;99.90;;;;;;4980111;28;20058;-62
2023/12/28 04:58:31;;;;;;;3.33;2.80;;;6.80;99.90;;;;;;4985271;28;20022;-63
2023/12/28 05:00:57;;;;;;;3.92;2.17;;;6.80;99.90;;;;;;5030981;22;20369;-53
2023/12/28 05:03:22;;;;;;;3.90;1.90;;;6.80;99.90;;;;;;5022589;28;20048;-51
2023/12/28 05:05:48;;;;;;;3.90;2.47;;;6.80;99.90;;;;;;5019251;28;20484;-49
2023/12/28 05:08:13;;;;;;;3.28;2.35;;;6.80;99.90;;;;;;5021861;28;20071;-52
2023/12/28 05:10:39;;;;;;;5.10;3.00;;;6.80;99.90;;;;;;5022906;28;20113;-48
2023/12/28 05:13:04;;;;;;;4.10;2.60;;;6.90;99.90;;;;;;5019948;28;20053;-50
2023/12/28 05:15:30;;;;;;;4.90;2.65;;;6.80;99.90;;;;;;5019313;28;20025;-52
2023/12/28 05:17:56;;;;;;;3.40;2.25;;;6.80;99.90;;;;;;5018053;28;20033;-53
2023/12/28 05:20:21;;;;;;;3.97;2.67;;;6.80;99.90;;;;;;5020416;28;20045;-50
2023/12/28 05:22:47;;;;;;;6.15;2.70;;;6.90;99.90;;;;;;5023045;28;20082;-52
2023/12/28 05:25:13;;;;;;;2.80;2.28;;;6.80;99.90;;;;;;5022665;28;20037;-51
2023/12/28 05:27:38;;;;;;;3.70;2.40;;;6.80;99.90;;;;;;5020078;28;20120;-52
2023/12/28 05:30:05;;;;;;;4.15;2.63;;;6.90;99.90;;;;;;5019165;28;20071;-53
2023/12/28 05:32:30;;;;;;;3.80;2.67;;;6.80;99.90;;;;;;5021082;28;20115;-51
2023/12/28 05:34:56;;;;;;;3.05;2.47;;;6.80;99.90;;;;;;5021225;28;20505;-51
2023/12/28 05:37:22;;;;;;;3.83;2.60;;;6.80;99.90;;;;;;5018870;28;20170;-52
2023/12/28 05:39:47;;;;;;;4.53;2.55;;;6.80;99.90;;;;;;5019138;28;20125;-50
2023/12/28 05:42:13;;;;;;;2.95;2.20;;;6.90;99.90;;;;;;5021300;28;20036;-54
2023/12/28 05:44:38;;;;;;;5.38;2.10;;;6.90;99.90;;;;;;5021395;28;20038;-49
2023/12/28 05:47:04;;;;;;;5.18;2.40;;;6.90;99.90;;;;;;5019739;28;20026;-47
2023/12/28 05:49:30;;;;;;;5.95;2.50;;;6.90;99.90;;;;;;5018733;28;20431;-49
2023/12/28 05:51:56;;;;;;;3.92;2.22;;;6.90;99.90;;;;;;5018138;28;20064;-49
2023/12/28 05:54:21;;;;;;;3.70;2.50;;;6.90;99.90;;;;;;5017511;28;20041;-47
2023/12/28 05:56:47;;;;;;;4.10;2.55;;;6.90;99.90;;;;;;5017999;28;20609;-48
2023/12/28 05:59:12;;;;;;;8.45;2.55;;;6.90;99.90;;;;;;5023127;28;20061;-52
2023/12/28 06:01:43;;;;;;;4.80;2.45;;;6.90;99.90;;;;;;5022069;28;20045;-48
2023/12/28 06:04:08;;;;;;;3.72;2.67;;;6.90;99.90;;;;;;5022926;28;20036;-47
2023/12/28 06:06:34;;;;;;;3.95;2.30;;;6.90;99.90;;;;;;5019189;28;20034;-49
2023/12/28 06:08:59;;;;;;;6.00;2.63;;;6.90;99.90;;;;;;5020542;28;20494;-48
2023/12/28 06:11:25;;;;;;;8.35;2.75;;;7.00;99.90;;;;;;5024143;28;20022;-48
2023/12/28 06:13:51;;;;;;;3.15;2.25;;;7.10;99.90;;;;;;5022701;28;20075;-48
2023/12/28 06:16:16;;;;;;;6.20;2.78;;;7.10;99.90;;;;;;5025580;28;20107;-49
2023/12/28 06:18:42;;;;;;;6.93;2.92;;;7.20;99.90;;;;;;5020143;28;20079;-49
2023/12/28 06:21:08;;;;;;;4.20;2.63;;;7.20;99.90;;;;;;5024535;28;20025;-46
2023/12/28 06:23:34;;;;;;;4.57;2.97;;;7.20;99.90;;;;;;5019048;28;20120;-48
2023/12/28 06:26:06;;;;;;;5.65;3.00;;;7.30;99.90;;;;;;5024165;28;20104;-47
2023/12/28 06:28:32;;;;;;;5.60;2.53;;;7.30;99.90;;;;;;5019051;28;20050;-47
2023/12/28 06:31:00;;;;;;;3.80;2.30;;;7.40;99.90;;;;;;5022920;28;20037;-51
2023/12/28 06:33:29;;;;;;;4.15;2.63;;;7.40;99.90;;;;;;5020010;28;20116;-47
2023/12/28 06:35:55;;;;;;;3.00;2.38;;;7.50;99.90;;;;;;5024788;28;20044;-50
2023/12/28 06:38:20;;;;;;;5.10;2.33;;;7.50;99.90;;;;;;5024799;28;20021;-48
2023/12/28 06:40:46;;;;;;;6.82;2.83;;;7.50;99.90;;;;;;5023739;28;20468;-50
2023/12/28 06:43:11;;;;;;;6.13;2.65;;;7.60;99.90;;;;;;5025500;28;20168;-51
2023/12/28 06:45:38;;;;;;;5.50;2.20;;;7.70;99.90;;;;;;5024004;28;20046;-48
2023/12/28 06:48:04;;;;;;;4.72;2.67;;;7.70;99.90;;;;;;5020475;28;20037;-49
2023/12/28 06:50:30;;;;;;;7.82;2.55;;;7.70;99.90;;;;;;5023096;28;20029;-48
2023/12/28 06:52:55;;;;;;;4.53;2.30;;;7.80;99.90;;;;;;5022677;28;20048;-50
2023/12/28 06:55:21;;;;;;;4.13;2.45;;;7.80;99.90;;;;;;5025226;28;20059;-48
2023/12/28 06:57:46;;;;;;;3.15;2.80;;;7.90;99.90;;;;;;5022004;28;20034;-49
2023/12/28 07:00:13;;;;;;;5.38;2.58;;;7.90;99.90;;;;;;5018580;28;20069;-50
2023/12/28 07:02:38;;;;;;;3.95;2.45;;;7.90;99.90;;;;;;5023829;28;20095;-47
2023/12/28 07:05:04;;;;;;;3.92;2.50;;;7.90;99.90;;;;;;5023901;28;20034;-52
2023/12/28 07:07:30;;;;;;;6.13;2.42;;;7.90;99.90;;;;;;5018488;28;20033;-57
2023/12/28 07:09:55;;;;;;;5.28;2.63;;;8.00;99.90;;;;;;5022835;28;20037;-48
2023/12/28 07:12:21;;;;;;;4.85;2.47;;;8.00;99.90;;;;;;5020877;28;20034;-51
2023/12/28 07:14:47;;;;;;;6.88;2.88;;;8.00;99.90;;;;;;5022793;28;20061;-46
2023/12/28 07:17:17;;;;;;;2.80;2.17;;;8.10;99.90;;;;;;5020877;28;20405;-51
2023/12/28 07:19:45;;;;;;;3.53;2.10;;;8.00;99.90;;;;;;5022894;28;20698;-49
2023/12/28 07:22:11;;;;;;;6.80;2.38;;;8.00;99.90;;;;;;5020139;28;20025;-49
2023/12/28 07:24:36;;;;;;;3.38;2.20;;;8.00;99.90;;;;;;5017830;28;20036;-48
2023/12/28 07:27:02;;;;;;;4.03;2.13;;;8.00;99.90;;;;;;5020030;28;20033;-52
2023/12/28 07:29:27;;;;;;;4.35;1.85;;;8.00;99.90;;;;;;5024465;28;20040;-53
2023/12/28 07:31:54;;;;;;;4.90;2.13;;;8.00;99.90;;;;;;5021355;28;20041;-49
2023/12/28 07:34:19;;;;;;;7.97;2.40;;;8.10;99.90;;;;;;5021742;28;20072;-48
2023/12/28 07:36:45;;;;;;;5.00;2.70;;;8.10;99.90;;;;;;5018291;28;20030;-53
2023/12/28 07:39:11;;;;;;;8.93;2.60;;;8.10;99.90;;;;;;5020300;28;20038;-51
2023/12/28 07:41:36;;;;;;;4.78;2.25;;;8.10;99.90;;;;;;5022196;28;20187;-49
2023/12/28 07:44:02;;;;;;;2.53;1.98;;;8.10;99.90;;;;;;5019954;28;20044;-48
2023/12/28 07:46:27;;;;;;;3.33;1.90;;;8.10;99.90;;;;;;5020731;28;20028;-48
2023/12/28 07:48:53;;;;;;;7.38;2.30;;;8.10;99.90;;;;;;5024066;28;20181;-47
2023/12/28 07:51:19;;;;;;;4.63;2.15;;;8.10;99.90;;;;;;5020178;28;20434;-47
2023/12/28 07:53:44;;;;;;;5.20;2.42;;;8.10;99.90;;;;;;5021487;28;20033;-49
2023/12/28 07:56:10;;;;;;;5.55;2.33;;;8.10;99.90;;;;;;5019632;28;20025;-50
2023/12/28 07:58:37;;;;;;;4.57;1.80;;;8.20;99.90;;;;;;5020160;28;20033;-53
2023/12/28 08:01:03;;;;;;;4.38;2.33;;;8.20;99.90;;;;;;5023877;28;20432;-53
2023/12/28 08:03:28;;;;;;;7.15;2.63;;;8.10;99.90;;;;;;5018704;28;20076;-49
2023/12/28 08:05:54;;;;;;;6.80;2.50;;;8.10;99.90;;;;;;5020516;28;20037;-46
2023/12/28 08:08:19;;;;;;;3.65;2.15;;;8.10;99.90;;;;;;5021010;28;20033;-51
2023/12/28 08:10:45;;;;;;;6.15;2.22;;;8.10;99.90;;;;;;5019201;28;20520;-49
2023/12/28 08:13:11;;;;;;;3.25;1.73;;;8.20;99.90;;;;;;5020275;28;20671;-46
2023/12/28 08:15:36;;;;;;;4.40;2.92;;;8.20;99.90;;;;;;5017375;28;20033;-51
2023/12/28 08:18:02;;;;;;;4.60;2.30;;;8.30;99.90;;;;;;5018173;28;20036;-48
2023/12/28 08:20:28;;;;;;;5.88;2.30;;;8.30;99.90;;;;;;5018875;28;20075;-50
2023/12/28 08:22:53;;;;;;;3.13;1.83;;;8.40;99.90;;;;;;5020688;28;20090;-47
2023/12/28 08:25:19;;;;;;;5.35;2.00;;;8.40;99.90;;;;;;5016681;28;20030;-50
2023/12/28 08:27:44;;;;;;;5.70;2.40;;;8.50;99.90;;;;;;5021496;28;20399;-51
2023/12/28 08:30:10;;;;;;;6.20;2.00;;;8.50;99.90;;;;;;5014931;28;20028;-49
2023/12/28 08:32:36;;;;;;;8.75;2.03;;;8.50;99.90;;;;;;5019706;28;20052;-49
2023/12/28 08:35:02;;;;;;;4.45;2.00;;;8.60;99.90;;;;;;5018454;28;20068;-49
2023/12/28 08:37:28;;;;;;;7.35;2.47;;;8.60;99.90;;;;;;5021843;28;20072;-50
2023/12/28 08:39:55;;;;;;;2.80;1.80;;;8.60;99.90;;;;;;5017437;28;20064;-50
2023/12/28 08:42:20;;;;;;;5.45;2.40;;;8.70;99.90;;;;;;5019700;28;20040;-49
2023/12/28 08:44:46;;;;;;;4.13;1.65;;;8.70;99.90;;;;;;5018991;28;20400;-55
2023/12/28 08:47:11;;;;;;;3.33;1.88;;;8.70;99.90;;;;;;5020435;28;20076;-51
2023/12/28 08:49:37;;;;;;;9.05;2.30;;;8.70;99.90;;;;;;5019911;28;20044;-49
2023/12/28 08:52:03;;;;;;;2.75;1.63;;;8.80;99.90;;;;;;5019840;28;20037;-50
2023/12/28 08:54:28;;;;;;;5.78;2.35;;;8.70;99.90;;;;;;5018688;28;20034;-49
2023/12/28 08:56:54;;;;;;;1.55;1.42;;;8.80;99.90;;;;;;5017876;28;20034;-46
2023/12/28 08:59:19;;;;;;;5.60;1.90;;;8.90;99.90;;;;;;5019768;28;20029;-51
2023/12/28 09:01:45;;;;;;;6.60;2.13;;;8.80;99.90;;;;;;5016292;28;20202;-48
2023/12/28 09:04:11;;;;;;;5.00;1.77;;;8.80;99.90;;;;;;5022425;28;20040;-47
2023/12/28 09:06:36;;;;;;;7.53;2.00;;;8.90;99.90;;;;;;5018540;28;20037;-51
2023/12/28 09:09:03;;;;;;;3.95;1.52;;;8.90;99.90;;;;;;5024544;28;20160;-51
2023/12/28 09:11:29;;;;;;;4.00;1.48;;;8.90;99.90;;;;;;5020360;28;20045;-46
2023/12/28 09:13:55;;;;;;;4.40;1.70;;;9.00;99.90;;;;;;5019389;28;20045;-48
2023/12/28 09:16:21;;;;;;;5.45;1.95;;;9.10;99.90;;;;;;5021670;28;20091;-51
2023/12/28 09:18:46;;;;;;;8.77;2.00;;;9.10;99.90;;;;;;5021289;28;20494;-52
2023/12/28 09:21:12;;;;;;;4.68;2.15;;;9.10;99.90;;;;;;5020700;28;20509;-51
2023/12/28 09:23:38;;;;;;;3.60;1.75;;;9.10;99.90;;;;;;5020496;28;20030;-53
2023/12/28 09:26:04;;;;;;;9.13;1.95;;;9.20;99.90;;;;;;5020107;28;20410;-48
2023/12/28 09:28:31;;;;;;;5.30;1.80;;;9.20;99.90;;;;;;5019115;28;20038;-52
2023/12/28 09:30:57;;;;;;;5.53;1.60;;;9.20;99.90;;;;;;5023094;28;20036;-50
2023/12/28 09:33:22;;;;;;;2.60;1.67;;;9.30;99.90;;;;;;5023690;28;20695;-52
2023/12/28 09:35:48;;;;;;;4.72;1.70;;;9.40;99.90;;;;;;5019972;28;20042;-46
2023/12/28 09:38:14;;;;;;;8.38;2.17;;;9.40;99.90;;;;;;5018817;28;20056;-50
2023/12/28 09:40:43;;;;;;;10.65;2.33;;;9.40;99.90;;;;;;5023790;28;20069;-49
2023/12/28 09:43:22;;;;;;;3.75;1.35;;;9.40;99.90;;;;;;5019170;28;20039;-55
2023/12/28 09:45:49;;;;;;;3.97;1.60;;;9.40;99.90;;;;;;5022063;28;20061;-51
2023/12/28 09:48:19;;;;;;;6.45;2.58;;;9.40;99.90;;;;;;5022202;28;20049;-47
2023/12/28 09:50:55;;;;;;;4.85;1.65;;;9.50;99.90;;;;;;5020221;28;20134;-49
2023/12/28 09:53:24;;;;;;;6.15;1.77;;;9.50;99.90;;;;;;5023914;28;20406;-48
2023/12/28 09:55:54;;;;;;;5.88;2.10;;;9.50;99.90;;;;;;5024305;28;20384;-46
2023/12/28 09:58:21;;;;;;;4.35;1.65;;;9.50;99.90;;;;;;5022553;28;20072;-50
2023/12/28 10:00:48;;;;;;;4.53;1.40;;;9.50;99.90;;;;;;5024577;28;20521;-50
2023/12/28 10:03:14;;;;;;;10.50;1.73;;;9.50;99.90;;;;;;5023464;28;20029;-51
2023/12/28 10:05:47;;;;;;;7.85;2.00;;;9.60;99.90;;;;;;5024208;28;20026;-49
2023/12/28 10:08:16;;;;;;;5.60;2.35;;;9.60;99.90;;;;;;5021040;28;20025;-52
2023/12/28 10:10:43;;;;;;;8.18;1.77;;;9.60;99.90;;;;;;5023823;28;20064;-47
2023/12/28 10:13:10;;;;;;;4.20;1.58;;;9.60;99.90;;;;;;5021011;28;20502;-48
2023/12/28 10:15:37;;;;;;;10.38;1.90;;;9.60;99.90;;;;;;5022820;28;20512;-50
2023/12/28 10:18:03;;;;;;;6.68;1.90;;;9.70;99.90;;;;;;5018610;28;20033;-51
2023/12/28 10:20:30;;;;;;;8.07;2.20;;;9.70;99.90;;;;;;5024514;28;20038;-50
2023/12/28 10:22:57;;;;;;;5.57;2.08;;;9.70;99.90;;;;;;5025451;28;20034;-51
2023/12/28 10:25:23;;;;;;;8.32;2.83;;;9.80;99.90;;;;;;5022690;28;20080;-50
2023/12/28 10:27:53;;;;;;;6.82;2.85;;;9.80;99.90;;;;;;5023568;28;20025;-47
2023/12/28 10:30:20;;;;;;;10.65;3.55;;;9.80;99.90;;;;;;5022065;28;20044;-48
2023/12/28 10:32:46;;;;;;;9.25;3.13;;;9.90;99.90;;;;;;5019077;28;20025;-53
2023/12/28 10:35:12;;;;;;;4.07;1.83;;;9.90;99.90;;;;;;5022239;28;20037;-49
2023/12/28 10:37:43;;;;;;;6.15;2.00;;;9.90;99.90;;;;;;5023225;28;20081;-49
2023/12/28 10:40:16;;;;;;;6.25;1.52;;;9.90;99.90;;;;;;5020626;28;20061;-48
2023/12/28 10:42:51;;;;;;;8.93;1.95;;;9.80;99.90;;;;;;5023219;28;20025;-47
2023/12/28 10:45:23;;;;;;;5.68;1.88;;;9.80;99.90;;;;;;5018861;28;20449;-47
2023/12/28 10:48:12;;;;;;;7.22;2.30;;;9.80;99.90;;;;;;5023114;28;20025;-50
2023/12/28 10:50:49;;;;;;;7.32;2.03;;;9.80;99.90;;;;;;5019964;28;20038;-50
2023/12/28 10:53:47;;;;;;;6.25;1.75;;;9.90;99.90;;;;;;5021356;28;20053;-51
2023/12/28 10:56:22;;;;;;;9.88;2.33;;;9.90;99.90;;;;;;5021031;28;20112;-48
2023/12/28 10:59:14;;;;;;;8.88;2.33;;;9.90;99.90;;;;;;5021229;28;20478;-48
2023/12/28 11:01:42;;;;;;;8.35;1.92;;;9.90;99.90;;;;;;5024937;22;20086;-86
2023/12/28 11:04:18;;;;;;;8.57;2.03;;;10.00;99.90;;;;;;5008168;28;20030;-84
2023/12/28 11:06:46;;;;;;;8.98;1.60;;;10.00;99.90;;;;;;5008540;28;20690;-85
2023/12/28 11:09:12;;;;;;;6.28;1.52;;;10.00;99.90;;;;;;5006136;28;20033;-85
2023/12/28 11:11:40;;;;;;;5.65;1.75;;;10.10;99.90;;;;;;5009187;28;20052;-87
2023/12/28 11:14:06;;;;;;;8.77;2.83;;;10.00;99.90;;;;;;5010490;28;20105;-85
2023/12/28 11:16:33;;;;;;;10.15;2.10;;;10.10;99.90;;;;;;5010904;28;20029;-85
2023/12/28 11:18:59;;;;;;;8.38;1.75;;;10.10;99.90;;;;;;5010059;28;20030;-86
2023/12/28 11:21:26;;;;;;;6.60;1.95;;;10.10;99.90;;;;;;5008552;28;20022;-84
2023/12/28 11:23:58;;;;;;;6.13;1.48;;;10.20;99.90;;;;;;5010332;28;20271;-85
2023/12/28 11:26:24;;;;;;;6.63;1.60;;;10.10;99.90;;;;;;5010666;28;20088;-85
2023/12/28 11:28:49;;;;;;;7.90;2.00;;;10.10;99.90;;;;;;5010977;28;20025;-85
2023/12/28 11:31:16;;;;;;;6.85;2.30;;;10.10;99.90;;;;;;5010444;28;20083;-84
2023/12/28 11:33:45;;;;;;;8.43;1.83;;;10.10;99.90;;;;;;5011741;28;20022;-85
2023/12/28 11:36:11;;;;;;;7.65;2.08;;;10.10;99.90;;;;;;5011915;28;20030;-85
2023/12/28 11:39:05;;;;;;;6.30;2.30;;;10.10;99.90;;;;;;5007463;28;20034;-85
2023/12/28 11:41:36;;;;;;;4.72;1.65;;;10.10;99.90;;;;;;5008417;28;20064;-85
2023/12/28 11:44:04;;;;;;;6.28;2.25;;;10.10;99.90;;;;;;5007749;28;20026;-84
2023/12/28 11:46:30;;;;;;;6.30;1.73;;;10.10;99.90;;;;;;5004565;28;20041;-84
2023/12/28 11:49:09;;;;;;;7.63;2.25;;;10.10;99.90;;;;;;5008156;28;20022;-84
2023/12/28 11:51:37;;;;;;;6.53;2.47;;;10.10;99.90;;;;;;5008887;28;20393;-85
2023/12/28 11:54:03;;;;;;;9.30;2.38;;;10.10;99.90;;;;;;5005500;28;20046;-84
2023/12/28 11:56:29;;;;;;;11.15;2.72;;;10.10;99.90;;;;;;5020442;28;20029;-84
2023/12/28 11:58:55;;;;;;;7.60;1.92;;;10.10;99.90;;;;;;5007111;28;20057;-85
2023/12/28 12:01:20;;;;;;;6.90;2.38;;;10.20;99.90;;;;;;5009234;28;20490;-85
2023/12/28 12:03:47;;;;;;;8.38;2.75;;;10.20;99.90;;;;;;5008621;28;20759;-86
2023/12/28 12:06:13;;;;;;;7.93;2.80;;;10.20;99.90;;;;;;5009836;28;20022;-85
2023/12/28 12:08:38;;;;;;;7.68;2.75;;;10.20;99.90;;;;;;5006144;28;20076;-86
2023/12/28 12:11:07;;;;;;;14.10;3.00;;;10.30;99.90;;;;;;5006471;28;20018;-86
2023/12/28 12:13:33;;;;;;;10.40;2.03;;;10.30;99.90;;;;;;5009850;28;20049;-85
2023/12/28 12:16:02;;;;;;;9.13;2.42;;;10.30;99.90;;;;;;5010920;28;20449;-84
2023/12/28 12:18:29;;;;;;;9.20;2.38;;;10.40;99.90;;;;;;5008273;28;20036;-85
2023/12/28 12:20:58;;;;;;;10.98;3.15;;;10.40;99.90;;;;;;5012339;28;20052;-86
2023/12/28 12:23:24;;;;;;;7.55;2.28;;;10.40;99.90;;;;;;5009665;28;20065;-85
2023/12/28 12:25:49;;;;;;;9.70;1.83;;;10.40;99.90;;;;;;5005074;28;20026;-85
2023/12/28 12:28:15;;;;;;;6.18;1.85;;;10.40;99.90;;;;;;5008689;28;20156;-86
2023/12/28 12:30:48;;;;;;;8.45;2.40;;;10.40;99.90;;;;;;5011606;28;20044;-85
2023/12/28 12:33:15;;;;;;;7.65;2.38;;;10.40;99.90;;;;;;5008869;28;20511;-86
2023/12/28 12:35:41;;;;;;;7.78;2.70;;;10.40;99.90;;;;;;5006002;28;20463;-86
2023/12/28 12:38:06;;;;;;;12.60;2.63;;;10.40;99.90;;;;;;5006856;28;20029;-84
2023/12/28 12:40:33;;;;;;;5.72;1.98;;;10.40;99.90;;;;;;5007791;28;20049;-85
2023/12/28 12:43:00;;;;;;;9.15;2.33;;;10.30;99.90;;;;;;5003813;28;20104;-85
2023/12/28 12:45:26;;;;;;;8.50;2.20;;;10.30;99.90;;;;;;5011386;28;20072;-85
2023/12/28 12:47:51;;;;;;;6.03;2.45;;;10.30;99.90;;;;;;5022719;28;20018;-88
2023/12/28 12:50:18;;;;;;;13.70;2.88;;;10.30;99.90;;;;;;5011346;28;20031;-85
2023/12/28 12:52:45;;;;;;;8.00;2.13;;;10.40;99.90;;;;;;5005755;28;20034;-85